Airport View

Enter AWOS ICAO identifier for current METAR.

ex. KFNL

KAIT 192057Z AUTO 21009G14KT 10SM CLR 26/14 A2992 RMK AO2

19 Aug 2019 21:01

Frequency: 118.675

Phone: 218-927-2101

Other Area AWOS: KHZX - KBRD - KPWC - KXVG

TAF KBRD 191738Z 1918/2018 22011G17KT P6SM FEW250 FM200200 VRB04KT P6SM SKC FM201100 19005KT P6SM VCSH BKN030 FM201300 17005KT P6SM -SHRA BKN030 FM201600 23005KT P6SM -SHRA VCTS BKN020CB